sensor_id;sensor_type;location;lat;lon;timestamp;temperature;humidity
45785;DHT22;31489;51.404;5.474;2023-03-19T00:02:19;14.80;73.10
45785;DHT22;31489;51.404;5.474;2023-03-19T00:04:46;14.80;73.10
45785;DHT22;31489;51.404;5.474;2023-03-19T00:07:12;14.80;73.10
45785;DHT22;31489;51.404;5.474;2023-03-19T00:09:38;14.80;73.20
45785;DHT22;31489;51.404;5.474;2023-03-19T00:12:04;14.80;73.30
45785;DHT22;31489;51.404;5.474;2023-03-19T00:14:30;14.70;73.30
45785;DHT22;31489;51.404;5.474;2023-03-19T00:16:56;14.80;73.40
45785;DHT22;31489;51.404;5.474;2023-03-19T00:19:22;14.80;73.50
45785;DHT22;31489;51.404;5.474;2023-03-19T00:21:47;14.80;73.50
45785;DHT22;31489;51.404;5.474;2023-03-19T00:24:16;14.80;73.90
45785;DHT22;31489;51.404;5.474;2023-03-19T00:26:50;14.80;73.60
45785;DHT22;31489;51.404;5.474;2023-03-19T00:29:20;14.80;74.20
45785;DHT22;31489;51.404;5.474;2023-03-19T00:31:45;14.80;73.60
45785;DHT22;31489;51.404;5.474;2023-03-19T00:34:15;14.80;73.80
45785;DHT22;31489;51.404;5.474;2023-03-19T00:36:43;14.80;74.40
45785;DHT22;31489;51.404;5.474;2023-03-19T00:39:12;14.90;73.70
45785;DHT22;31489;51.404;5.474;2023-03-19T00:41:37;14.80;73.60
45785;DHT22;31489;51.404;5.474;2023-03-19T00:44:03;14.80;73.60
45785;DHT22;31489;51.404;5.474;2023-03-19T00:46:30;14.80;73.70
45785;DHT22;31489;51.404;5.474;2023-03-19T00:48:56;14.80;73.60
45785;DHT22;31489;51.404;5.474;2023-03-19T00:51:23;14.90;73.70
45785;DHT22;31489;51.404;5.474;2023-03-19T00:53:49;14.90;73.80
45785;DHT22;31489;51.404;5.474;2023-03-19T00:56:16;14.80;73.90
45785;DHT22;31489;51.404;5.474;2023-03-19T00:58:43;14.80;74.00
45785;DHT22;31489;51.404;5.474;2023-03-19T01:01:12;14.80;73.80
45785;DHT22;31489;51.404;5.474;2023-03-19T01:03:38;14.80;73.90
45785;DHT22;31489;51.404;5.474;2023-03-19T01:06:07;14.90;74.00
45785;DHT22;31489;51.404;5.474;2023-03-19T01:08:32;14.80;74.00
45785;DHT22;31489;51.404;5.474;2023-03-19T01:11:10;14.80;73.90
45785;DHT22;31489;51.404;5.474;2023-03-19T01:13:36;14.80;74.40
45785;DHT22;31489;51.404;5.474;2023-03-19T01:16:03;14.80;73.90
45785;DHT22;31489;51.404;5.474;2023-03-19T01:18:29;14.80;74.00
45785;DHT22;31489;51.404;5.474;2023-03-19T01:20:55;14.80;74.00
45785;DHT22;31489;51.404;5.474;2023-03-19T01:23:21;14.80;74.00
45785;DHT22;31489;51.404;5.474;2023-03-19T01:25:46;14.80;74.00
45785;DHT22;31489;51.404;5.474;2023-03-19T01:28:12;14.80;74.00
45785;DHT22;31489;51.404;5.474;2023-03-19T01:30:38;14.80;74.00
45785;DHT22;31489;51.404;5.474;2023-03-19T01:33:05;14.80;73.90
45785;DHT22;31489;51.404;5.474;2023-03-19T01:35:31;14.80;73.90
45785;DHT22;31489;51.404;5.474;2023-03-19T01:37:57;14.70;74.00
45785;DHT22;31489;51.404;5.474;2023-03-19T01:40:23;14.70;73.90
45785;DHT22;31489;51.404;5.474;2023-03-19T01:42:54;14.80;73.90
45785;DHT22;31489;51.404;5.474;2023-03-19T01:45:31;14.70;73.90
45785;DHT22;31489;51.404;5.474;2023-03-19T01:47:57;14.70;74.10
45785;DHT22;31489;51.404;5.474;2023-03-19T01:50:33;14.70;73.80
45785;DHT22;31489;51.404;5.474;2023-03-19T01:53:02;14.70;74.00
45785;DHT22;31489;51.404;5.474;2023-03-19T01:55:29;14.70;73.90
45785;DHT22;31489;51.404;5.474;2023-03-19T01:57:55;14.60;74.00
45785;DHT22;31489;51.404;5.474;2023-03-19T02:00:21;14.60;74.20
45785;DHT22;31489;51.404;5.474;2023-03-19T02:02:51;14.60;74.20
45785;DHT22;31489;51.404;5.474;2023-03-19T02:05:20;14.60;74.30
45785;DHT22;31489;51.404;5.474;2023-03-19T02:07:55;14.60;74.30
45785;DHT22;31489;51.404;5.474;2023-03-19T02:10:26;14.60;74.30
45785;DHT22;31489;51.404;5.474;2023-03-19T02:12:53;14.60;74.40
45785;DHT22;31489;51.404;5.474;2023-03-19T02:15:18;14.60;74.30
45785;DHT22;31489;51.404;5.474;2023-03-19T02:17:45;14.60;74.30
45785;DHT22;31489;51.404;5.474;2023-03-19T02:20:52;14.60;74.50
45785;DHT22;31489;51.404;5.474;2023-03-19T02:28:23;14.60;74.40
45785;DHT22;31489;51.404;5.474;2023-03-19T02:30:52;14.60;74.30
45785;DHT22;31489;51.404;5.474;2023-03-19T02:33:21;14.60;74.30
45785;DHT22;31489;51.404;5.474;2023-03-19T02:35:49;14.60;74.30
45785;DHT22;31489;51.404;5.474;2023-03-19T02:38:19;14.60;74.40
45785;DHT22;31489;51.404;5.474;2023-03-19T02:41:07;14.60;74.60
45785;DHT22;31489;51.404;5.474;2023-03-19T02:43:35;14.60;74.90
45785;DHT22;31489;51.404;5.474;2023-03-19T02:46:03;14.50;74.50
45785;DHT22;31489;51.404;5.474;2023-03-19T02:48:29;14.50;74.60
45785;DHT22;31489;51.404;5.474;2023-03-19T02:50:54;14.50;74.70
45785;DHT22;31489;51.404;5.474;2023-03-19T02:53:21;14.50;74.80
45785;DHT22;31489;51.404;5.474;2023-03-19T02:55:47;14.50;74.80
45785;DHT22;31489;51.404;5.474;2023-03-19T02:58:13;14.50;74.90
45785;DHT22;31489;51.404;5.474;2023-03-19T03:00:41;14.50;75.00
45785;DHT22;31489;51.404;5.474;2023-03-19T03:03:07;14.50;74.90
45785;DHT22;31489;51.404;5.474;2023-03-19T03:05:34;14.50;75.00
45785;DHT22;31489;51.404;5.474;2023-03-19T03:08:03;14.50;75.00
45785;DHT22;31489;51.404;5.474;2023-03-19T03:10:30;14.50;75.00
45785;DHT22;31489;51.404;5.474;2023-03-19T03:13:02;14.50;75.00
45785;DHT22;31489;51.404;5.474;2023-03-19T03:15:28;14.50;75.20
45785;DHT22;31489;51.404;5.474;2023-03-19T03:17:59;14.50;75.20
45785;DHT22;31489;51.404;5.474;2023-03-19T03:20:25;14.50;75.70
45785;DHT22;31489;51.404;5.474;2023-03-19T03:22:53;14.50;75.30
45785;DHT22;31489;51.404;5.474;2023-03-19T03:25:19;14.50;75.40
45785;DHT22;31489;51.404;5.474;2023-03-19T03:27:45;14.50;75.30
45785;DHT22;31489;51.404;5.474;2023-03-19T03:30:12;14.50;75.30
45785;DHT22;31489;51.404;5.474;2023-03-19T03:32:43;14.50;75.30
45785;DHT22;31489;51.404;5.474;2023-03-19T03:35:11;14.50;75.50
45785;DHT22;31489;51.404;5.474;2023-03-19T03:37:37;14.50;75.50
45785;DHT22;31489;51.404;5.474;2023-03-19T03:40:05;14.50;75.40
45785;DHT22;31489;51.404;5.474;2023-03-19T03:42:33;14.50;75.30
45785;DHT22;31489;51.404;5.474;2023-03-19T03:45:00;14.50;75.30
45785;DHT22;31489;51.404;5.474;2023-03-19T03:47:26;14.60;75.40
45785;DHT22;31489;51.404;5.474;2023-03-19T03:49:52;14.60;75.30
45785;DHT22;31489;51.404;5.474;2023-03-19T03:52:18;14.60;75.40
45785;DHT22;31489;51.404;5.474;2023-03-19T03:54:43;14.60;75.40
45785;DHT22;31489;51.404;5.474;2023-03-19T03:57:09;14.50;75.30
45785;DHT22;31489;51.404;5.474;2023-03-19T03:59:37;14.50;75.30
45785;DHT22;31489;51.404;5.474;2023-03-19T04:02:03;14.50;75.30
45785;DHT22;31489;51.404;5.474;2023-03-19T04:04:35;14.50;75.30
45785;DHT22;31489;51.404;5.474;2023-03-19T04:07:00;14.50;75.50
45785;DHT22;31489;51.404;5.474;2023-03-19T04:09:26;14.50;75.50
45785;DHT22;31489;51.404;5.474;2023-03-19T04:11:52;14.50;75.50
45785;DHT22;31489;51.404;5.474;2023-03-19T04:14:18;14.50;75.50
45785;DHT22;31489;51.404;5.474;2023-03-19T04:16:43;14.50;75.50
45785;DHT22;31489;51.404;5.474;2023-03-19T04:19:09;14.50;75.40
45785;DHT22;31489;51.404;5.474;2023-03-19T04:21:35;14.50;75.50
45785;DHT22;31489;51.404;5.474;2023-03-19T04:24:01;14.50;75.60
45785;DHT22;31489;51.404;5.474;2023-03-19T04:26:29;14.50;75.50
45785;DHT22;31489;51.404;5.474;2023-03-19T04:28:57;14.50;75.50
45785;DHT22;31489;51.404;5.474;2023-03-19T04:31:23;14.50;75.30
45785;DHT22;31489;51.404;5.474;2023-03-19T04:33:49;14.50;75.40
45785;DHT22;31489;51.404;5.474;2023-03-19T04:36:15;14.40;75.40
45785;DHT22;31489;51.404;5.474;2023-03-19T04:38:48;14.50;75.40
45785;DHT22;31489;51.404;5.474;2023-03-19T04:41:16;14.40;75.40
45785;DHT22;31489;51.404;5.474;2023-03-19T04:43:41;14.40;75.30
45785;DHT22;31489;51.404;5.474;2023-03-19T04:46:10;14.40;75.30
45785;DHT22;31489;51.404;5.474;2023-03-19T04:48:35;14.40;75.40
45785;DHT22;31489;51.404;5.474;2023-03-19T04:51:02;14.30;75.30
45785;DHT22;31489;51.404;5.474;2023-03-19T04:53:28;14.30;75.50
45785;DHT22;31489;51.404;5.474;2023-03-19T04:55:54;14.30;75.60
45785;DHT22;31489;51.404;5.474;2023-03-19T04:58:20;14.30;75.70
45785;DHT22;31489;51.404;5.474;2023-03-19T05:00:46;14.30;75.80
45785;DHT22;31489;51.404;5.474;2023-03-19T05:03:13;14.30;75.80
45785;DHT22;31489;51.404;5.474;2023-03-19T05:05:39;14.30;75.90
45785;DHT22;31489;51.404;5.474;2023-03-19T05:08:05;14.30;75.90
45785;DHT22;31489;51.404;5.474;2023-03-19T05:10:33;14.30;75.90
45785;DHT22;31489;51.404;5.474;2023-03-19T05:12:59;14.30;76.00
45785;DHT22;31489;51.404;5.474;2023-03-19T05:15:25;14.30;76.00
45785;DHT22;31489;51.404;5.474;2023-03-19T05:17:51;14.30;76.10
45785;DHT22;31489;51.404;5.474;2023-03-19T05:20:17;14.30;76.10
45785;DHT22;31489;51.404;5.474;2023-03-19T05:22:45;14.30;76.10
45785;DHT22;31489;51.404;5.474;2023-03-19T05:25:12;14.20;76.20
45785;DHT22;31489;51.404;5.474;2023-03-19T05:27:38;14.30;76.20
45785;DHT22;31489;51.404;5.474;2023-03-19T05:30:05;14.30;76.20
45785;DHT22;31489;51.404;5.474;2023-03-19T05:32:31;14.30;76.30
45785;DHT22;31489;51.404;5.474;2023-03-19T05:34:59;14.30;76.30
45785;DHT22;31489;51.404;5.474;2023-03-19T05:37:25;14.30;76.30
45785;DHT22;31489;51.404;5.474;2023-03-19T05:39:53;14.30;76.30
45785;DHT22;31489;51.404;5.474;2023-03-19T05:42:20;14.30;76.40
45785;DHT22;31489;51.404;5.474;2023-03-19T05:44:45;14.30;76.40
45785;DHT22;31489;51.404;5.474;2023-03-19T05:47:11;14.30;76.40
45785;DHT22;31489;51.404;5.474;2023-03-19T05:49:37;14.30;76.50
45785;DHT22;31489;51.404;5.474;2023-03-19T05:52:03;14.30;76.40
45785;DHT22;31489;51.404;5.474;2023-03-19T05:54:29;14.30;76.40
45785;DHT22;31489;51.404;5.474;2023-03-19T05:56:55;14.30;76.50
45785;DHT22;31489;51.404;5.474;2023-03-19T05:59:23;14.30;76.50
45785;DHT22;31489;51.404;5.474;2023-03-19T06:01:49;14.30;76.50
45785;DHT22;31489;51.404;5.474;2023-03-19T06:04:18;14.30;76.50
45785;DHT22;31489;51.404;5.474;2023-03-19T06:06:43;14.30;76.60
45785;DHT22;31489;51.404;5.474;2023-03-19T06:09:12;14.30;76.60
45785;DHT22;31489;51.404;5.474;2023-03-19T06:11:38;14.20;76.50
45785;DHT22;31489;51.404;5.474;2023-03-19T06:14:07;14.20;76.50
45785;DHT22;31489;51.404;5.474;2023-03-19T06:16:36;14.20;76.60
45785;DHT22;31489;51.404;5.474;2023-03-19T06:19:04;14.20;76.60
45785;DHT22;31489;51.404;5.474;2023-03-19T06:21:30;14.10;77.30
45785;DHT22;31489;51.404;5.474;2023-03-19T06:23:56;14.10;76.80
45785;DHT22;31489;51.404;5.474;2023-03-19T06:26:22;14.10;76.90
45785;DHT22;31489;51.404;5.474;2023-03-19T06:28:51;14.10;77.00
45785;DHT22;31489;51.404;5.474;2023-03-19T06:31:17;14.10;77.00
45785;DHT22;31489;51.404;5.474;2023-03-19T06:33:43;14.10;77.10
45785;DHT22;31489;51.404;5.474;2023-03-19T06:36:09;14.00;77.10
45785;DHT22;31489;51.404;5.474;2023-03-19T06:38:35;14.10;77.10
45785;DHT22;31489;51.404;5.474;2023-03-19T06:41:01;14.00;77.10
45785;DHT22;31489;51.404;5.474;2023-03-19T06:43:28;14.00;77.20
45785;DHT22;31489;51.404;5.474;2023-03-19T06:45:54;13.90;77.30
45785;DHT22;31489;51.404;5.474;2023-03-19T06:48:20;13.90;77.30
45785;DHT22;31489;51.404;5.474;2023-03-19T06:50:46;13.90;77.40
45785;DHT22;31489;51.404;5.474;2023-03-19T06:53:12;13.90;77.60
45785;DHT22;31489;51.404;5.474;2023-03-19T06:55:38;13.90;77.70
45785;DHT22;31489;51.404;5.474;2023-03-19T06:58:04;13.80;77.60
45785;DHT22;31489;51.404;5.474;2023-03-19T07:00:31;13.80;77.60
45785;DHT22;31489;51.404;5.474;2023-03-19T07:03:00;13.90;77.60
45785;DHT22;31489;51.404;5.474;2023-03-19T07:05:26;13.80;77.80
45785;DHT22;31489;51.404;5.474;2023-03-19T07:07:55;13.90;77.70
45785;DHT22;31489;51.404;5.474;2023-03-19T07:10:21;13.80;77.90
45785;DHT22;31489;51.404;5.474;2023-03-19T07:12:47;13.90;77.80
45785;DHT22;31489;51.404;5.474;2023-03-19T07:15:12;13.90;77.90
45785;DHT22;31489;51.404;5.474;2023-03-19T07:17:38;13.90;78.00
45785;DHT22;31489;51.404;5.474;2023-03-19T07:20:04;13.90;78.10
45785;DHT22;31489;51.404;5.474;2023-03-19T07:22:31;13.90;78.10
45785;DHT22;31489;51.404;5.474;2023-03-19T07:24:57;13.90;78.00
45785;DHT22;31489;51.404;5.474;2023-03-19T07:27:22;13.90;77.90
45785;DHT22;31489;51.404;5.474;2023-03-19T07:29:48;14.00;78.00
45785;DHT22;31489;51.404;5.474;2023-03-19T07:32:14;14.00;78.00
45785;DHT22;31489;51.404;5.474;2023-03-19T07:34:40;14.00;78.10
45785;DHT22;31489;51.404;5.474;2023-03-19T07:37:06;14.00;78.70
45785;DHT22;31489;51.404;5.474;2023-03-19T07:39:31;14.00;78.10
45785;DHT22;31489;51.404;5.474;2023-03-19T07:41:57;14.00;78.20
45785;DHT22;31489;51.404;5.474;2023-03-19T07:44:23;14.00;78.20
45785;DHT22;31489;51.404;5.474;2023-03-19T07:46:49;14.10;78.30
45785;DHT22;31489;51.404;5.474;2023-03-19T07:49:14;14.10;78.40
45785;DHT22;31489;51.404;5.474;2023-03-19T07:51:40;14.10;78.50
45785;DHT22;31489;51.404;5.474;2023-03-19T07:54:06;14.10;78.60
45785;DHT22;31489;51.404;5.474;2023-03-19T07:56:32;14.20;79.40
45785;DHT22;31489;51.404;5.474;2023-03-19T07:58:57;14.20;78.70
45785;DHT22;31489;51.404;5.474;2023-03-19T08:01:24;14.30;78.60
45785;DHT22;31489;51.404;5.474;2023-03-19T08:03:53;14.30;78.40
45785;DHT22;31489;51.404;5.474;2023-03-19T08:06:19;14.40;78.30
45785;DHT22;31489;51.404;5.474;2023-03-19T08:08:44;14.40;77.90
45785;DHT22;31489;51.404;5.474;2023-03-19T08:11:10;14.50;77.90
45785;DHT22;31489;51.404;5.474;2023-03-19T08:13:36;14.50;77.50
45785;DHT22;31489;51.404;5.474;2023-03-19T08:16:02;14.60;77.10
45785;DHT22;31489;51.404;5.474;2023-03-19T08:18:27;14.70;76.80
45785;DHT22;31489;51.404;5.474;2023-03-19T08:20:56;14.70;76.30
45785;DHT22;31489;51.404;5.474;2023-03-19T08:23:22;14.70;76.10
45785;DHT22;31489;51.404;5.474;2023-03-19T08:25:48;14.80;76.00
45785;DHT22;31489;51.404;5.474;2023-03-19T08:28:16;14.90;76.00
45785;DHT22;31489;51.404;5.474;2023-03-19T08:30:41;14.90;75.40
45785;DHT22;31489;51.404;5.474;2023-03-19T08:33:10;15.00;75.40
45785;DHT22;31489;51.404;5.474;2023-03-19T08:35:37;15.10;75.10
45785;DHT22;31489;51.404;5.474;2023-03-19T08:38:04;15.10;74.70
45785;DHT22;31489;51.404;5.474;2023-03-19T08:40:29;15.20;74.70
45785;DHT22;31489;51.404;5.474;2023-03-19T08:42:55;15.20;74.80
45785;DHT22;31489;51.404;5.474;2023-03-19T08:45:22;15.30;74.40
45785;DHT22;31489;51.404;5.474;2023-03-19T08:47:48;15.30;74.10
45785;DHT22;31489;51.404;5.474;2023-03-19T08:50:17;15.40;73.40
45785;DHT22;31489;51.404;5.474;2023-03-19T08:52:45;15.40;73.00
45785;DHT22;31489;51.404;5.474;2023-03-19T08:55:11;15.50;73.30
45785;DHT22;31489;51.404;5.474;2023-03-19T08:57:37;15.50;72.50
45785;DHT22;31489;51.404;5.474;2023-03-19T09:00:04;15.50;72.60
45785;DHT22;31489;51.404;5.474;2023-03-19T09:02:30;15.50;72.30
45785;DHT22;31489;51.404;5.474;2023-03-19T09:04:55;15.50;72.40
45785;DHT22;31489;51.404;5.474;2023-03-19T09:07:21;15.50;71.90
45785;DHT22;31489;51.404;5.474;2023-03-19T09:09:47;15.50;71.50
45785;DHT22;31489;51.404;5.474;2023-03-19T09:12:15;15.50;71.60
45785;DHT22;31489;51.404;5.474;2023-03-19T09:14:41;15.50;71.70
45785;DHT22;31489;51.404;5.474;2023-03-19T09:17:10;15.50;71.50
45785;DHT22;31489;51.404;5.474;2023-03-19T09:19:37;15.50;71.30
45785;DHT22;31489;51.404;5.474;2023-03-19T09:22:04;15.50;71.50
45785;DHT22;31489;51.404;5.474;2023-03-19T09:24:30;15.50;71.40
45785;DHT22;31489;51.404;5.474;2023-03-19T09:26:56;15.50;71.30
45785;DHT22;31489;51.404;5.474;2023-03-19T09:29:21;15.50;71.30
45785;DHT22;31489;51.404;5.474;2023-03-19T09:31:47;15.50;71.50
45785;DHT22;31489;51.404;5.474;2023-03-19T09:34:13;15.50;71.20
45785;DHT22;31489;51.404;5.474;2023-03-19T09:36:38;15.50;71.50
45785;DHT22;31489;51.404;5.474;2023-03-19T09:39:07;15.50;71.40
45785;DHT22;31489;51.404;5.474;2023-03-19T09:44:39;15.60;71.20
45785;DHT22;31489;51.404;5.474;2023-03-19T09:49:56;15.80;71.40
45785;DHT22;31489;51.404;5.474;2023-03-19T09:54:56;15.90;71.20
45785;DHT22;31489;51.404;5.474;2023-03-19T09:57:23;16.00;72.00
45785;DHT22;31489;51.404;5.474;2023-03-19T09:59:49;16.10;71.40
45785;DHT22;31489;51.404;5.474;2023-03-19T10:02:39;16.10;71.30
45785;DHT22;31489;51.404;5.474;2023-03-19T10:10:44;16.40;70.00
45785;DHT22;31489;51.404;5.474;2023-03-19T10:16:13;16.50;69.50
45785;DHT22;31489;51.404;5.474;2023-03-19T10:18:45;16.60;69.70
45785;DHT22;31489;51.404;5.474;2023-03-19T10:21:17;16.70;69.50
45785;DHT22;31489;51.404;5.474;2023-03-19T10:26:33;16.90;69.40
45785;DHT22;31489;51.404;5.474;2023-03-19T10:31:50;17.40;69.60
45785;DHT22;31489;51.404;5.474;2023-03-19T10:39:39;18.90;68.50
45785;DHT22;31489;51.404;5.474;2023-03-19T10:45:02;19.80;64.10
45785;DHT22;31489;51.404;5.474;2023-03-19T10:47:38;20.10;64.50
45785;DHT22;31489;51.404;5.474;2023-03-19T10:50:04;20.40;64.40
45785;DHT22;31489;51.404;5.474;2023-03-19T10:52:33;20.80;65.60
45785;DHT22;31489;51.404;5.474;2023-03-19T10:55:45;21.20;64.40
45785;DHT22;31489;51.404;5.474;2023-03-19T10:58:00;21.70;65.40
45785;DHT22;31489;51.404;5.474;2023-03-19T11:00:29;22.20;62.00
45785;DHT22;31489;51.404;5.474;2023-03-19T11:02:57;22.50;61.60
45785;DHT22;31489;51.404;5.474;2023-03-19T11:05:30;22.80;61.00
45785;DHT22;31489;51.404;5.474;2023-03-19T11:10:26;23.40;59.00
45785;DHT22;31489;51.404;5.474;2023-03-19T11:12:58;23.50;57.40
45785;DHT22;31489;51.404;5.474;2023-03-19T11:15:36;23.60;56.10
45785;DHT22;31489;51.404;5.474;2023-03-19T11:18:23;23.70;55.50
45785;DHT22;31489;51.404;5.474;2023-03-19T11:20:58;23.90;55.20
45785;DHT22;31489;51.404;5.474;2023-03-19T11:23:28;24.00;53.40
45785;DHT22;31489;51.404;5.474;2023-03-19T11:25:55;23.90;53.80
45785;DHT22;31489;51.404;5.474;2023-03-19T11:28:24;23.80;52.80
45785;DHT22;31489;51.404;5.474;2023-03-19T11:39:27;22.70;52.40
45785;DHT22;31489;51.404;5.474;2023-03-19T11:44:34;22.00;53.20
45785;DHT22;31489;51.404;5.474;2023-03-19T11:50:11;21.30;53.80
45785;DHT22;31489;51.404;5.474;2023-03-19T11:52:51;20.90;53.90
45785;DHT22;31489;51.404;5.474;2023-03-19T11:55:19;20.60;54.70
45785;DHT22;31489;51.404;5.474;2023-03-19T11:58:15;20.30;56.10
45785;DHT22;31489;51.404;5.474;2023-03-19T12:00:49;20.10;55.80
45785;DHT22;31489;51.404;5.474;2023-03-19T12:03:43;19.80;56.40
45785;DHT22;31489;51.404;5.474;2023-03-19T12:12:01;19.30;58.00
45785;DHT22;31489;51.404;5.474;2023-03-19T12:23:53;18.80;59.10
45785;DHT22;31489;51.404;5.474;2023-03-19T12:26:25;18.80;59.40
45785;DHT22;31489;51.404;5.474;2023-03-19T12:29:46;18.70;59.80
45785;DHT22;31489;51.404;5.474;2023-03-19T12:34:49;18.50;60.30
45785;DHT22;31489;51.404;5.474;2023-03-19T12:37:30;18.50;60.70
45785;DHT22;31489;51.404;5.474;2023-03-19T12:40:27;18.50;61.00
45785;DHT22;31489;51.404;5.474;2023-03-19T12:42:57;18.50;61.10
45785;DHT22;31489;51.404;5.474;2023-03-19T12:45:33;18.70;61.40
45785;DHT22;31489;51.404;5.474;2023-03-19T12:48:17;18.80;60.60
45785;DHT22;31489;51.404;5.474;2023-03-19T12:50:49;19.00;60.30
45785;DHT22;31489;51.404;5.474;2023-03-19T12:53:44;19.10;60.30
45785;DHT22;31489;51.404;5.474;2023-03-19T13:02:03;19.20;59.20
45785;DHT22;31489;51.404;5.474;2023-03-19T13:04:34;19.20;59.10
45785;DHT22;31489;51.404;5.474;2023-03-19T13:07:23;19.20;59.50
45785;DHT22;31489;51.404;5.474;2023-03-19T13:10:02;19.20;60.00
45785;DHT22;31489;51.404;5.474;2023-03-19T13:12:31;19.30;59.30
45785;DHT22;31489;51.404;5.474;2023-03-19T13:23:45;20.00;58.00
45785;DHT22;31489;51.404;5.474;2023-03-19T13:26:13;20.10;58.00
45785;DHT22;31489;51.404;5.474;2023-03-19T13:31:34;20.00;57.30
45785;DHT22;31489;51.404;5.474;2023-03-19T13:34:06;20.00;57.50
45785;DHT22;31489;51.404;5.474;2023-03-19T13:36:43;19.90;57.20
45785;DHT22;31489;51.404;5.474;2023-03-19T13:39:15;19.80;57.90
45785;DHT22;31489;51.404;5.474;2023-03-19T13:44:32;19.80;59.00
45785;DHT22;31489;51.404;5.474;2023-03-19T13:55:45;19.70;58.10
45785;DHT22;31489;51.404;5.474;2023-03-19T13:58:13;19.70;57.80
45785;DHT22;31489;51.404;5.474;2023-03-19T14:01:09;19.70;58.50
45785;DHT22;31489;51.404;5.474;2023-03-19T14:03:55;19.60;58.30
45785;DHT22;31489;51.404;5.474;2023-03-19T14:06:38;19.60;58.60
45785;DHT22;31489;51.404;5.474;2023-03-19T14:09:32;19.50;58.00
45785;DHT22;31489;51.404;5.474;2023-03-19T14:19:49;19.40;58.80
45785;DHT22;31489;51.404;5.474;2023-03-19T14:22:20;19.40;58.90
45785;DHT22;31489;51.404;5.474;2023-03-19T14:25:01;19.40;59.00
45785;DHT22;31489;51.404;5.474;2023-03-19T14:27:31;19.40;58.30
45785;DHT22;31489;51.404;5.474;2023-03-19T14:30:02;19.40;58.10
45785;DHT22;31489;51.404;5.474;2023-03-19T14:32:37;19.40;57.90
45785;DHT22;31489;51.404;5.474;2023-03-19T14:35:09;19.50;58.20
45785;DHT22;31489;51.404;5.474;2023-03-19T14:37:40;19.70;58.90
45785;DHT22;31489;51.404;5.474;2023-03-19T14:40:31;19.90;59.00
45785;DHT22;31489;51.404;5.474;2023-03-19T14:43:10;20.10;58.50
45785;DHT22;31489;51.404;5.474;2023-03-19T14:54:05;20.60;57.60
45785;DHT22;31489;51.404;5.474;2023-03-19T14:56:39;20.70;57.30
45785;DHT22;31489;51.404;5.474;2023-03-19T14:59:05;20.80;56.70
45785;DHT22;31489;51.404;5.474;2023-03-19T15:01:33;20.80;56.60
45785;DHT22;31489;51.404;5.474;2023-03-19T15:04:07;20.80;56.80
45785;DHT22;31489;51.404;5.474;2023-03-19T15:06:37;20.70;55.70
45785;DHT22;31489;51.404;5.474;2023-03-19T15:09:24;20.70;55.60
45785;DHT22;31489;51.404;5.474;2023-03-19T15:12:24;20.60;55.00
45785;DHT22;31489;51.404;5.474;2023-03-19T15:15:38;20.40;55.20
45785;DHT22;31489;51.404;5.474;2023-03-19T15:18:08;20.30;55.50
45785;DHT22;31489;51.404;5.474;2023-03-19T15:20:42;20.10;55.50
45785;DHT22;31489;51.404;5.474;2023-03-19T15:23:10;19.90;55.50
45785;DHT22;31489;51.404;5.474;2023-03-19T15:25:48;19.80;55.80
45785;DHT22;31489;51.404;5.474;2023-03-19T15:28:15;19.70;56.40
45785;DHT22;31489;51.404;5.474;2023-03-19T15:30:41;19.60;56.50
45785;DHT22;31489;51.404;5.474;2023-03-19T15:33:21;19.60;56.70
45785;DHT22;31489;51.404;5.474;2023-03-19T15:35:57;19.50;56.40
45785;DHT22;31489;51.404;5.474;2023-03-19T15:38:27;19.40;57.30
45785;DHT22;31489;51.404;5.474;2023-03-19T15:40:54;19.40;56.90
45785;DHT22;31489;51.404;5.474;2023-03-19T15:43:20;19.40;57.00
45785;DHT22;31489;51.404;5.474;2023-03-19T15:45:50;19.30;56.70
45785;DHT22;31489;51.404;5.474;2023-03-19T15:48:37;19.30;56.50
45785;DHT22;31489;51.404;5.474;2023-03-19T15:51:05;19.20;56.40
45785;DHT22;31489;51.404;5.474;2023-03-19T15:53:32;19.20;56.50
45785;DHT22;31489;51.404;5.474;2023-03-19T15:56:00;19.10;56.70
45785;DHT22;31489;51.404;5.474;2023-03-19T15:58:35;19.10;56.90
45785;DHT22;31489;51.404;5.474;2023-03-19T16:01:09;19.00;56.70
45785;DHT22;31489;51.404;5.474;2023-03-19T16:03:45;19.00;57.10
45785;DHT22;31489;51.404;5.474;2023-03-19T16:06:31;18.90;57.30
45785;DHT22;31489;51.404;5.474;2023-03-19T16:11:40;18.80;57.60
45785;DHT22;31489;51.404;5.474;2023-03-19T16:16:40;18.60;58.20
45785;DHT22;31489;51.404;5.474;2023-03-19T16:19:30;18.50;58.60
45785;DHT22;31489;51.404;5.474;2023-03-19T16:21:56;18.40;58.90
45785;DHT22;31489;51.404;5.474;2023-03-19T16:24:34;18.30;59.10
45785;DHT22;31489;51.404;5.474;2023-03-19T16:27:17;18.20;59.30
45785;DHT22;31489;51.404;5.474;2023-03-19T16:29:57;18.10;59.70
45785;DHT22;31489;51.404;5.474;2023-03-19T16:32:28;18.00;59.60
45785;DHT22;31489;51.404;5.474;2023-03-19T16:34:57;17.90;59.60
45785;DHT22;31489;51.404;5.474;2023-03-19T16:42:38;17.60;59.90
45785;DHT22;31489;51.404;5.474;2023-03-19T16:47:39;17.40;60.30
45785;DHT22;31489;51.404;5.474;2023-03-19T16:50:05;17.30;60.40
45785;DHT22;31489;51.404;5.474;2023-03-19T16:52:32;17.20;60.40
45785;DHT22;31489;51.404;5.474;2023-03-19T16:54:59;17.10;60.50
45785;DHT22;31489;51.404;5.474;2023-03-19T16:57:25;17.00;60.90
45785;DHT22;31489;51.404;5.474;2023-03-19T16:59:52;17.00;61.20
45785;DHT22;31489;51.404;5.474;2023-03-19T17:02:18;17.00;61.30
45785;DHT22;31489;51.404;5.474;2023-03-19T17:04:44;16.90;61.30
45785;DHT22;31489;51.404;5.474;2023-03-19T17:07:11;16.90;61.30
45785;DHT22;31489;51.404;5.474;2023-03-19T17:09:37;16.90;61.30
45785;DHT22;31489;51.404;5.474;2023-03-19T17:12:04;16.90;61.30
45785;DHT22;31489;51.404;5.474;2023-03-19T17:14:31;16.80;61.20
45785;DHT22;31489;51.404;5.474;2023-03-19T17:16:57;16.80;61.50
45785;DHT22;31489;51.404;5.474;2023-03-19T17:19:34;16.80;61.60
45785;DHT22;31489;51.404;5.474;2023-03-19T17:22:00;16.70;61.60
45785;DHT22;31489;51.404;5.474;2023-03-19T17:24:33;16.70;61.60
45785;DHT22;31489;51.404;5.474;2023-03-19T17:27:03;16.70;61.70
45785;DHT22;31489;51.404;5.474;2023-03-19T17:29:29;16.60;61.70
45785;DHT22;31489;51.404;5.474;2023-03-19T17:31:56;16.50;61.80
45785;DHT22;31489;51.404;5.474;2023-03-19T17:34:25;16.50;62.00
45785;DHT22;31489;51.404;5.474;2023-03-19T17:36:57;16.40;62.00
45785;DHT22;31489;51.404;5.474;2023-03-19T17:39:24;16.30;62.50
45785;DHT22;31489;51.404;5.474;2023-03-19T17:41:51;16.30;62.30
45785;DHT22;31489;51.404;5.474;2023-03-19T17:44:18;16.30;62.30
45785;DHT22;31489;51.404;5.474;2023-03-19T17:46:47;16.20;62.20
45785;DHT22;31489;51.404;5.474;2023-03-19T17:51:44;16.00;62.20
45785;DHT22;31489;51.404;5.474;2023-03-19T17:54:11;15.90;62.20
45785;DHT22;31489;51.404;5.474;2023-03-19T17:56:37;15.80;62.30